sensor_id;sensor_type;location;lat;lon;timestamp;pressure;altitude;pressure_sealevel;temperature;humidity
9307;BME280;4691;47.612;7.610;2023-07-20T00:02:23;98736.44;;;21.45;100.00
9307;BME280;4691;47.612;7.610;2023-07-20T00:04:49;98734.66;;;21.52;100.00
9307;BME280;4691;47.612;7.610;2023-07-20T00:07:14;98744.88;;;21.50;100.00
9307;BME280;4691;47.612;7.610;2023-07-20T00:09:39;98742.94;;;21.44;100.00
9307;BME280;4691;47.612;7.610;2023-07-20T00:12:05;98745.38;;;21.39;100.00
9307;BME280;4691;47.612;7.610;2023-07-20T00:14:30;98744.34;;;21.40;100.00
9307;BME280;4691;47.612;7.610;2023-07-20T00:16:57;98743.88;;;21.36;100.00
9307;BME280;4691;47.612;7.610;2023-07-20T00:19:26;98744.03;;;21.35;100.00
9307;BME280;4691;47.612;7.610;2023-07-20T00:21:52;98741.72;;;21.31;100.00
9307;BME280;4691;47.612;7.610;2023-07-20T00:24:18;98741.91;;;21.30;100.00
9307;BME280;4691;47.612;7.610;2023-07-20T00:26:44;98749.41;;;21.28;100.00
9307;BME280;4691;47.612;7.610;2023-07-20T00:29:09;98761.03;;;21.22;100.00
9307;BME280;4691;47.612;7.610;2023-07-20T00:31:35;98752.41;;;21.18;100.00
9307;BME280;4691;47.612;7.610;2023-07-20T00:34:05;98760.97;;;21.15;100.00
9307;BME280;4691;47.612;7.610;2023-07-20T00:36:30;98752.16;;;21.13;100.00
9307;BME280;4691;47.612;7.610;2023-07-20T00:38:55;98758.69;;;21.04;100.00
9307;BME280;4691;47.612;7.610;2023-07-20T00:41:21;98757.13;;;20.95;100.00
9307;BME280;4691;47.612;7.610;2023-07-20T00:43:47;98762.09;;;20.91;100.00
9307;BME280;4691;47.612;7.610;2023-07-20T00:46:13;98757.59;;;20.83;100.00
9307;BME280;4691;47.612;7.610;2023-07-20T00:48:39;98763.88;;;20.84;100.00
9307;BME280;4691;47.612;7.610;2023-07-20T00:51:05;98767.31;;;20.78;100.00
9307;BME280;4691;47.612;7.610;2023-07-20T00:53:31;98763.19;;;20.67;100.00
9307;BME280;4691;47.612;7.610;2023-07-20T00:55:56;98759.81;;;20.65;100.00
9307;BME280;4691;47.612;7.610;2023-07-20T00:58:22;98760.56;;;20.59;100.00
9307;BME280;4691;47.612;7.610;2023-07-20T01:00:47;98757.53;;;20.54;100.00
9307;BME280;4691;47.612;7.610;2023-07-20T01:03:13;98767.06;;;20.50;100.00
9307;BME280;4691;47.612;7.610;2023-07-20T01:05:54;98770.81;;;20.49;100.00
9307;BME280;4691;47.612;7.610;2023-07-20T01:11:42;98769.88;;;20.41;100.00
9307;BME280;4691;47.612;7.610;2023-07-20T01:14:09;98773.63;;;20.40;100.00
9307;BME280;4691;47.612;7.610;2023-07-20T01:16:35;98777.00;;;20.42;100.00
9307;BME280;4691;47.612;7.610;2023-07-20T01:19:00;98766.13;;;20.42;100.00
9307;BME280;4691;47.612;7.610;2023-07-20T01:21:32;98766.22;;;20.49;100.00
9307;BME280;4691;47.612;7.610;2023-07-20T01:26:54;98765.28;;;20.42;100.00
9307;BME280;4691;47.612;7.610;2023-07-20T01:32:23;98765.34;;;20.34;100.00
9307;BME280;4691;47.612;7.610;2023-07-20T01:34:52;98770.69;;;20.27;100.00
9307;BME280;4691;47.612;7.610;2023-07-20T01:37:20;98769.34;;;20.23;100.00
9307;BME280;4691;47.612;7.610;2023-07-20T01:39:46;98768.31;;;20.24;100.00
9307;BME280;4691;47.612;7.610;2023-07-20T01:42:12;98765.31;;;20.19;100.00
9307;BME280;4691;47.612;7.610;2023-07-20T01:44:38;98776.91;;;20.13;100.00
9307;BME280;4691;47.612;7.610;2023-07-20T01:47:03;98782.69;;;20.10;100.00
9307;BME280;4691;47.612;7.610;2023-07-20T01:49:29;98783.06;;;20.07;100.00
9307;BME280;4691;47.612;7.610;2023-07-20T01:51:54;98771.53;;;20.05;100.00
9307;BME280;4691;47.612;7.610;2023-07-20T01:54:19;98766.41;;;20.10;100.00
9307;BME280;4691;47.612;7.610;2023-07-20T01:56:46;98758.94;;;20.12;100.00
9307;BME280;4691;47.612;7.610;2023-07-20T01:59:11;98763.69;;;20.10;100.00
9307;BME280;4691;47.612;7.610;2023-07-20T02:01:37;98761.34;;;20.07;100.00
9307;BME280;4691;47.612;7.610;2023-07-20T02:04:02;98766.13;;;20.05;100.00
9307;BME280;4691;47.612;7.610;2023-07-20T02:06:27;98775.25;;;20.04;100.00
9307;BME280;4691;47.612;7.610;2023-07-20T02:08:53;98767.50;;;20.00;100.00
9307;BME280;4691;47.612;7.610;2023-07-20T02:11:18;98765.16;;;19.97;100.00
9307;BME280;4691;47.612;7.610;2023-07-20T02:13:43;98775.69;;;19.92;100.00
9307;BME280;4691;47.612;7.610;2023-07-20T02:19:31;98781.72;;;19.79;100.00
9307;BME280;4691;47.612;7.610;2023-07-20T02:21:57;98782.25;;;19.75;100.00
9307;BME280;4691;47.612;7.610;2023-07-20T02:24:23;98779.91;;;19.72;100.00
9307;BME280;4691;47.612;7.610;2023-07-20T02:26:48;98789.06;;;19.71;100.00
9307;BME280;4691;47.612;7.610;2023-07-20T02:29:13;98780.44;;;19.67;100.00
9307;BME280;4691;47.612;7.610;2023-07-20T02:31:39;98785.03;;;19.58;100.00
9307;BME280;4691;47.612;7.610;2023-07-20T02:34:05;98784.91;;;19.52;100.00
9307;BME280;4691;47.612;7.610;2023-07-20T02:36:30;98782.22;;;19.44;100.00
9307;BME280;4691;47.612;7.610;2023-07-20T02:38:57;98789.56;;;19.35;100.00
9307;BME280;4691;47.612;7.610;2023-07-20T02:41:23;98799.06;;;19.31;100.00
9307;BME280;4691;47.612;7.610;2023-07-20T02:43:48;98804.84;;;19.28;100.00
9307;BME280;4691;47.612;7.610;2023-07-20T02:46:13;98800.13;;;19.22;100.00
9307;BME280;4691;47.612;7.610;2023-07-20T02:48:39;98805.88;;;19.19;100.00
9307;BME280;4691;47.612;7.610;2023-07-20T02:51:04;98800.81;;;19.15;100.00
9307;BME280;4691;47.612;7.610;2023-07-20T02:53:29;98800.81;;;19.15;100.00
9307;BME280;4691;47.612;7.610;2023-07-20T02:55:54;98799.13;;;19.14;100.00
9307;BME280;4691;47.612;7.610;2023-07-20T02:58:20;98797.63;;;19.12;100.00
9307;BME280;4691;47.612;7.610;2023-07-20T03:00:45;98810.34;;;19.11;100.00
9307;BME280;4691;47.612;7.610;2023-07-20T03:03:10;98802.38;;;19.10;100.00
9307;BME280;4691;47.612;7.610;2023-07-20T03:05:36;98797.09;;;19.08;100.00
9307;BME280;4691;47.612;7.610;2023-07-20T03:08:04;98792.38;;;19.10;100.00
9307;BME280;4691;47.612;7.610;2023-07-20T03:10:31;98802.84;;;19.13;100.00
9307;BME280;4691;47.612;7.610;2023-07-20T03:12:56;98803.38;;;19.17;100.00
9307;BME280;4691;47.612;7.610;2023-07-20T03:15:22;98807.25;;;19.23;100.00
9307;BME280;4691;47.612;7.610;2023-07-20T03:17:47;98798.38;;;19.29;100.00
9307;BME280;4691;47.612;7.610;2023-07-20T03:20:12;98793.66;;;19.31;100.00
9307;BME280;4691;47.612;7.610;2023-07-20T03:22:38;98791.78;;;19.31;100.00
9307;BME280;4691;47.612;7.610;2023-07-20T03:25:03;98799.06;;;19.31;100.00
9307;BME280;4691;47.612;7.610;2023-07-20T03:27:29;98797.38;;;19.30;100.00
9307;BME280;4691;47.612;7.610;2023-07-20T03:29:54;98796.72;;;19.28;100.00
9307;BME280;4691;47.612;7.610;2023-07-20T03:32:20;98799.56;;;19.34;100.00
9307;BME280;4691;47.612;7.610;2023-07-20T03:34:45;98787.19;;;19.40;100.00
9307;BME280;4691;47.612;7.610;2023-07-20T03:37:10;98790.88;;;19.39;100.00
9307;BME280;4691;47.612;7.610;2023-07-20T03:39:36;98790.25;;;19.37;100.00
9307;BME280;4691;47.612;7.610;2023-07-20T03:42:01;98797.72;;;19.35;100.00
9307;BME280;4691;47.612;7.610;2023-07-20T03:44:27;98792.81;;;19.30;100.00
9307;BME280;4691;47.612;7.610;2023-07-20T03:46:52;98796.03;;;19.26;100.00
9307;BME280;4691;47.612;7.610;2023-07-20T03:49:17;98806.06;;;19.17;100.00
9307;BME280;4691;47.612;7.610;2023-07-20T03:51:43;98817.09;;;19.15;100.00
9307;BME280;4691;47.612;7.610;2023-07-20T03:54:08;98808.28;;;19.13;100.00
9307;BME280;4691;47.612;7.610;2023-07-20T03:56:33;98809.97;;;19.14;100.00
9307;BME280;4691;47.612;7.610;2023-07-20T03:59:00;98810.81;;;19.15;100.00
9307;BME280;4691;47.612;7.610;2023-07-20T04:01:25;98813.38;;;19.17;100.00
9307;BME280;4691;47.612;7.610;2023-07-20T04:03:50;98810.47;;;19.18;100.00
9307;BME280;4691;47.612;7.610;2023-07-20T04:06:16;98807.59;;;19.20;100.00
9307;BME280;4691;47.612;7.610;2023-07-20T04:08:42;98810.66;;;19.17;100.00
9307;BME280;4691;47.612;7.610;2023-07-20T04:11:08;98802.31;;;19.26;100.00
9307;BME280;4691;47.612;7.610;2023-07-20T04:13:33;98814.34;;;19.24;100.00
9307;BME280;4691;47.612;7.610;2023-07-20T04:15:59;98817.44;;;19.12;100.00
9307;BME280;4691;47.612;7.610;2023-07-20T04:18:25;98833.88;;;19.03;100.00
9307;BME280;4691;47.612;7.610;2023-07-20T04:20:50;98832.88;;;18.96;100.00
9307;BME280;4691;47.612;7.610;2023-07-20T04:23:15;98845.09;;;18.91;100.00
9307;BME280;4691;47.612;7.610;2023-07-20T04:25:41;98845.59;;;18.87;100.00
9307;BME280;4691;47.612;7.610;2023-07-20T04:28:07;98849.50;;;18.84;100.00
9307;BME280;4691;47.612;7.610;2023-07-20T04:30:37;98848.00;;;18.82;100.00
9307;BME280;4691;47.612;7.610;2023-07-20T04:33:03;98839.19;;;18.80;100.00
9307;BME280;4691;47.612;7.610;2023-07-20T04:35:48;98832.09;;;18.79;100.00
9307;BME280;4691;47.612;7.610;2023-07-20T04:38:14;98836.66;;;18.78;100.00
9307;BME280;4691;47.612;7.610;2023-07-20T04:40:42;98835.47;;;18.81;100.00
9307;BME280;4691;47.612;7.610;2023-07-20T04:43:07;98835.44;;;18.89;100.00
9307;BME280;4691;47.612;7.610;2023-07-20T04:45:32;98830.38;;;18.94;100.00
9307;BME280;4691;47.612;7.610;2023-07-20T04:47:58;98823.75;;;18.97;100.00
9307;BME280;4691;47.612;7.610;2023-07-20T04:50:23;98829.31;;;19.03;100.00
9307;BME280;4691;47.612;7.610;2023-07-20T04:52:50;98814.75;;;19.04;100.00
9307;BME280;4691;47.612;7.610;2023-07-20T04:55:15;98814.75;;;19.04;100.00
9307;BME280;4691;47.612;7.610;2023-07-20T04:57:41;98826.59;;;19.03;100.00
9307;BME280;4691;47.612;7.610;2023-07-20T05:00:07;98833.03;;;19.02;100.00
9307;BME280;4691;47.612;7.610;2023-07-20T05:02:32;98840.34;;;19.02;100.00
9307;BME280;4691;47.612;7.610;2023-07-20T05:04:57;98827.97;;;18.99;100.00
9307;BME280;4691;47.612;7.610;2023-07-20T05:07:22;98833.41;;;18.99;100.00
9307;BME280;4691;47.612;7.610;2023-07-20T05:09:48;98842.22;;;19.01;100.00
9307;BME280;4691;47.612;7.610;2023-07-20T05:12:13;98824.75;;;19.04;100.00
9307;BME280;4691;47.612;7.610;2023-07-20T05:14:38;98832.03;;;19.11;100.00
9307;BME280;4691;47.612;7.610;2023-07-20T05:17:04;98830.47;;;19.17;100.00
9307;BME280;4691;47.612;7.610;2023-07-20T05:19:29;98830.13;;;19.20;100.00
9307;BME280;4691;47.612;7.610;2023-07-20T05:21:55;98811.47;;;19.25;100.00
9307;BME280;4691;47.612;7.610;2023-07-20T05:24:20;98810.59;;;19.33;100.00
9307;BME280;4691;47.612;7.610;2023-07-20T05:26:46;98813.09;;;19.43;100.00
9307;BME280;4691;47.612;7.610;2023-07-20T05:29:11;98807.78;;;19.49;100.00
9307;BME280;4691;47.612;7.610;2023-07-20T05:31:36;98803.34;;;19.56;100.00
9307;BME280;4691;47.612;7.610;2023-07-20T05:34:01;98794.16;;;19.66;100.00
9307;BME280;4691;47.612;7.610;2023-07-20T05:36:27;98787.38;;;19.70;100.00
9307;BME280;4691;47.612;7.610;2023-07-20T05:38:52;98791.94;;;19.69;100.00
9307;BME280;4691;47.612;7.610;2023-07-20T05:41:18;98793.78;;;19.77;100.00
9307;BME280;4691;47.612;7.610;2023-07-20T05:43:43;98788.59;;;19.90;100.00
9307;BME280;4691;47.612;7.610;2023-07-20T05:46:08;98786.09;;;19.89;100.00
9307;BME280;4691;47.612;7.610;2023-07-20T05:48:34;98783.91;;;19.84;100.00
9307;BME280;4691;47.612;7.610;2023-07-20T05:51:00;98784.91;;;19.83;100.00
9307;BME280;4691;47.612;7.610;2023-07-20T05:53:25;98784.75;;;19.85;100.00
9307;BME280;4691;47.612;7.610;2023-07-20T05:55:54;98774.03;;;19.91;100.00
9307;BME280;4691;47.612;7.610;2023-07-20T05:58:20;98759.06;;;19.95;100.00
9307;BME280;4691;47.612;7.610;2023-07-20T06:00:49;98770.28;;;19.92;100.00
9307;BME280;4691;47.612;7.610;2023-07-20T06:03:15;98769.13;;;19.87;100.00
9307;BME280;4691;47.612;7.610;2023-07-20T06:05:42;98771.31;;;19.91;100.00
9307;BME280;4691;47.612;7.610;2023-07-20T06:08:07;98768.22;;;19.94;100.00
9307;BME280;4691;47.612;7.610;2023-07-20T06:10:32;98768.22;;;19.94;100.00
9307;BME280;4691;47.612;7.610;2023-07-20T06:12:58;98772.38;;;20.05;100.00
9307;BME280;4691;47.612;7.610;2023-07-20T06:15:33;98780.69;;;20.04;100.00
9307;BME280;4691;47.612;7.610;2023-07-20T06:18:00;98785.94;;;20.05;100.00
9307;BME280;4691;47.612;7.610;2023-07-20T06:20:26;98782.19;;;20.06;100.00
9307;BME280;4691;47.612;7.610;2023-07-20T06:22:51;98779.69;;;20.05;100.00
9307;BME280;4691;47.612;7.610;2023-07-20T06:25:16;98775.25;;;20.04;100.00
9307;BME280;4691;47.612;7.610;2023-07-20T06:27:42;98781.66;;;20.11;100.00
9307;BME280;4691;47.612;7.610;2023-07-20T06:30:08;98781.50;;;20.12;100.00
9307;BME280;4691;47.612;7.610;2023-07-20T06:32:34;98770.09;;;20.17;100.00
9307;BME280;4691;47.612;7.610;2023-07-20T06:34:59;98782.47;;;20.19;100.00
9307;BME280;4691;47.612;7.610;2023-07-20T06:37:25;98785.94;;;20.28;100.00
9307;BME280;4691;47.612;7.610;2023-07-20T06:39:50;98781.94;;;20.39;100.00
9307;BME280;4691;47.612;7.610;2023-07-20T06:42:15;98768.84;;;20.42;100.00
9307;BME280;4691;47.612;7.610;2023-07-20T06:44:40;98761.16;;;20.46;100.00
9307;BME280;4691;47.612;7.610;2023-07-20T06:47:06;98759.59;;;20.52;100.00
9307;BME280;4691;47.612;7.610;2023-07-20T06:49:31;98750.44;;;20.53;100.00
9307;BME280;4691;47.612;7.610;2023-07-20T06:51:57;98746.66;;;20.54;100.00
9307;BME280;4691;47.612;7.610;2023-07-20T06:54:22;98750.09;;;20.56;100.00
9307;BME280;4691;47.612;7.610;2023-07-20T06:56:47;98753.91;;;20.61;100.00
9307;BME280;4691;47.612;7.610;2023-07-20T06:59:13;98758.59;;;20.67;100.00
9307;BME280;4691;47.612;7.610;2023-07-20T07:01:38;98749.81;;;20.80;100.00
9307;BME280;4691;47.612;7.610;2023-07-20T07:04:04;98758.72;;;20.74;100.00
9307;BME280;4691;47.612;7.610;2023-07-20T07:06:30;98746.63;;;20.77;100.00
9307;BME280;4691;47.612;7.610;2023-07-20T07:08:56;98747.19;;;20.87;100.00
9307;BME280;4691;47.612;7.610;2023-07-20T07:11:21;98748.75;;;21.11;100.00
9307;BME280;4691;47.612;7.610;2023-07-20T07:13:47;98748.59;;;20.98;100.00
9307;BME280;4691;47.612;7.610;2023-07-20T07:16:14;98750.09;;;21.00;100.00
9307;BME280;4691;47.612;7.610;2023-07-20T07:18:43;98748.22;;;21.01;100.00
9307;BME280;4691;47.612;7.610;2023-07-20T07:21:09;98748.75;;;21.11;100.00
9307;BME280;4691;47.612;7.610;2023-07-20T07:27:08;98740.50;;;21.19;100.00
9307;BME280;4691;47.612;7.610;2023-07-20T07:29:34;98741.44;;;21.26;100.00
9307;BME280;4691;47.612;7.610;2023-07-20T07:31:59;98737.97;;;21.33;100.00
9307;BME280;4691;47.612;7.610;2023-07-20T07:34:24;98725.31;;;21.40;100.00
9307;BME280;4691;47.612;7.610;2023-07-20T07:36:50;98719.84;;;21.55;100.00
9307;BME280;4691;47.612;7.610;2023-07-20T07:39:15;98737.34;;;21.67;100.00
9307;BME280;4691;47.612;7.610;2023-07-20T07:41:41;98712.00;;;21.66;100.00
9307;BME280;4691;47.612;7.610;2023-07-20T07:44:06;98723.56;;;21.68;100.00
9307;BME280;4691;47.612;7.610;2023-07-20T07:46:31;98705.22;;;21.77;100.00
9307;BME280;4691;47.612;7.610;2023-07-20T07:48:57;98697.13;;;21.84;100.00
9307;BME280;4691;47.612;7.610;2023-07-20T07:51:22;98696.84;;;22.00;100.00
9307;BME280;4691;47.612;7.610;2023-07-20T07:53:47;98680.88;;;22.18;100.00
9307;BME280;4691;47.612;7.610;2023-07-20T07:56:14;98678.41;;;22.24;100.00
9307;BME280;4691;47.612;7.610;2023-07-20T07:58:39;98679.66;;;22.21;100.00
9307;BME280;4691;47.612;7.610;2023-07-20T08:01:05;98686.72;;;22.15;100.00
9307;BME280;4691;47.612;7.610;2023-07-20T08:03:30;98699.03;;;22.11;100.00
9307;BME280;4691;47.612;7.610;2023-07-20T08:05:56;98685.16;;;22.28;100.00
9307;BME280;4691;47.612;7.610;2023-07-20T08:08:22;98677.28;;;22.39;100.00
9307;BME280;4691;47.612;7.610;2023-07-20T08:10:47;98668.91;;;22.41;100.00
9307;BME280;4691;47.612;7.610;2023-07-20T08:13:13;98672.13;;;22.51;100.00
9307;BME280;4691;47.612;7.610;2023-07-20T08:15:39;98666.09;;;22.63;100.00
9307;BME280;4691;47.612;7.610;2023-07-20T08:18:04;98673.72;;;22.74;100.00
9307;BME280;4691;47.612;7.610;2023-07-20T08:20:29;98671.78;;;22.68;100.00
9307;BME280;4691;47.612;7.610;2023-07-20T08:22:55;98675.22;;;22.76;100.00
9307;BME280;4691;47.612;7.610;2023-07-20T08:25:21;98668.97;;;22.89;100.00
9307;BME280;4691;47.612;7.610;2023-07-20T08:27:46;98662.31;;;22.98;100.00
9307;BME280;4691;47.612;7.610;2023-07-20T08:30:12;98661.72;;;23.03;100.00
9307;BME280;4691;47.612;7.610;2023-07-20T08:32:38;98656.75;;;23.20;100.00
9307;BME280;4691;47.612;7.610;2023-07-20T08:35:03;98644.34;;;23.11;100.00
9307;BME280;4691;47.612;7.610;2023-07-20T08:37:29;98646.84;;;23.06;100.00
9307;BME280;4691;47.612;7.610;2023-07-20T08:39:54;98652.06;;;23.00;100.00
9307;BME280;4691;47.612;7.610;2023-07-20T08:42:20;98652.53;;;23.11;100.00
9307;BME280;4691;47.612;7.610;2023-07-20T08:44:48;98655.47;;;23.16;100.00
9307;BME280;4691;47.612;7.610;2023-07-20T08:47:16;98665.44;;;22.95;100.00
9307;BME280;4691;47.612;7.610;2023-07-20T08:49:41;98655.91;;;22.78;100.00
9307;BME280;4691;47.612;7.610;2023-07-20T08:52:08;98667.03;;;22.76;100.00
9307;BME280;4691;47.612;7.610;2023-07-20T08:54:34;98645.00;;;22.78;100.00
9307;BME280;4691;47.612;7.610;2023-07-20T08:57:02;98639.06;;;23.02;100.00
9307;BME280;4691;47.612;7.610;2023-07-20T08:59:28;98647.97;;;23.31;100.00
9307;BME280;4691;47.612;7.610;2023-07-20T09:01:56;98633.34;;;23.59;100.00
9307;BME280;4691;47.612;7.610;2023-07-20T09:04:22;98625.38;;;23.64;100.00
9307;BME280;4691;47.612;7.610;2023-07-20T09:06:49;98616.59;;;23.75;100.00
9307;BME280;4691;47.612;7.610;2023-07-20T09:09:14;98626.25;;;23.98;100.00
9307;BME280;4691;47.612;7.610;2023-07-20T09:11:40;98625.78;;;24.27;100.00
9307;BME280;4691;47.612;7.610;2023-07-20T09:14:06;98598.25;;;24.36;100.00
9307;BME280;4691;47.612;7.610;2023-07-20T09:16:32;98600.16;;;24.28;100.00
9307;BME280;4691;47.612;7.610;2023-07-20T09:18:58;98594.03;;;24.53;100.00
9307;BME280;4691;47.612;7.610;2023-07-20T09:21:23;98585.81;;;24.66;100.00
9307;BME280;4691;47.612;7.610;2023-07-20T09:23:56;98574.00;;;24.72;100.00
9307;BME280;4691;47.612;7.610;2023-07-20T09:26:21;98559.06;;;25.13;100.00
9307;BME280;4691;47.612;7.610;2023-07-20T09:28:49;98553.44;;;25.02;100.00
9307;BME280;4691;47.612;7.610;2023-07-20T09:31:20;98566.47;;;24.61;100.00
9307;BME280;4691;47.612;7.610;2023-07-20T09:33:47;98560.41;;;24.97;100.00
9307;BME280;4691;47.612;7.610;2023-07-20T09:36:13;98562.81;;;25.26;100.00
9307;BME280;4691;47.612;7.610;2023-07-20T09:38:40;98558.16;;;25.26;100.00
9307;BME280;4691;47.612;7.610;2023-07-20T09:41:06;98550.88;;;25.45;100.00
9307;BME280;4691;47.612;7.610;2023-07-20T09:43:34;98524.84;;;25.36;100.00
9307;BME280;4691;47.612;7.610;2023-07-20T09:45:59;98539.75;;;25.65;100.00
9307;BME280;4691;47.612;7.610;2023-07-20T09:48:25;98514.31;;;25.83;100.00
9307;BME280;4691;47.612;7.610;2023-07-20T09:50:52;98511.78;;;25.81;100.00
9307;BME280;4691;47.612;7.610;2023-07-20T09:53:18;98522.28;;;26.28;100.00
9307;BME280;4691;47.612;7.610;2023-07-20T09:55:45;98495.03;;;26.70;100.00
9307;BME280;4691;47.612;7.610;2023-07-20T09:58:11;98504.16;;;26.45;100.00
9307;BME280;4691;47.612;7.610;2023-07-20T10:00:38;98503.72;;;26.48;100.00
9307;BME280;4691;47.612;7.610;2023-07-20T10:03:04;98502.78;;;26.73;100.00
9307;BME280;4691;47.612;7.610;2023-07-20T10:05:34;98484.66;;;27.56;100.00
9307;BME280;4691;47.612;7.610;2023-07-20T10:08:02;98424.09;;;29.07;100.00
9307;BME280;4691;47.612;7.610;2023-07-20T10:10:28;98415.38;;;29.83;100.00
9307;BME280;4691;47.612;7.610;2023-07-20T10:12:54;98395.50;;;30.96;100.00
9307;BME280;4691;47.612;7.610;2023-07-20T10:15:24;98350.50;;;31.76;100.00
9307;BME280;4691;47.612;7.610;2023-07-20T10:18:22;98333.78;;;32.08;100.00
9307;BME280;4691;47.612;7.610;2023-07-20T10:20:51;98333.16;;;33.05;100.00
9307;BME280;4691;47.612;7.610;2023-07-20T10:23:19;98331.34;;;32.22;100.00
9307;BME280;4691;47.612;7.610;2023-07-20T10:25:45;98314.84;;;32.63;100.00
9307;BME280;4691;47.612;7.610;2023-07-20T10:28:12;98302.09;;;32.77;100.00
9307;BME280;4691;47.612;7.610;2023-07-20T10:30:38;98303.22;;;32.66;100.00
9307;BME280;4691;47.612;7.610;2023-07-20T10:33:05;98310.97;;;32.59;100.00
9307;BME280;4691;47.612;7.610;2023-07-20T10:35:31;98336.00;;;31.16;100.00
9307;BME280;4691;47.612;7.610;2023-07-20T10:38:15;98363.44;;;30.41;100.00
9307;BME280;4691;47.612;7.610;2023-07-20T10:40:40;98350.19;;;30.65;100.00
9307;BME280;4691;47.612;7.610;2023-07-20T10:43:07;98351.28;;;30.37;100.00
9307;BME280;4691;47.612;7.610;2023-07-20T10:48:15;98312.63;;;32.60;100.00
9307;BME280;4691;47.612;7.610;2023-07-20T10:50:41;98256.16;;;33.17;100.00
9307;BME280;4691;47.612;7.610;2023-07-20T10:53:11;98302.22;;;31.41;100.00
9307;BME280;4691;47.612;7.610;2023-07-20T10:55:38;98307.13;;;31.34;100.00
9307;BME280;4691;47.612;7.610;2023-07-20T10:58:07;98302.06;;;31.63;100.00
9307;BME280;4691;47.612;7.610;2023-07-20T11:00:34;98273.88;;;33.06;100.00
9307;BME280;4691;47.612;7.610;2023-07-20T11:02:59;98280.50;;;32.94;100.00
9307;BME280;4691;47.612;7.610;2023-07-20T11:05:35;98223.13;;;33.96;100.00
9307;BME280;4691;47.612;7.610;2023-07-20T11:08:06;98221.25;;;33.06;100.00
9307;BME280;4691;47.612;7.610;2023-07-20T11:10:32;98232.28;;;33.26;100.00
9307;BME280;4691;47.612;7.610;2023-07-20T11:13:16;98277.44;;;32.35;100.00
9307;BME280;4691;47.612;7.610;2023-07-20T11:16:02;98274.44;;;32.67;100.00
9307;BME280;4691;47.612;7.610;2023-07-20T11:18:29;98241.50;;;33.87;100.00
9307;BME280;4691;47.612;7.610;2023-07-20T11:20:56;98248.13;;;32.74;100.00
9307;BME280;4691;47.612;7.610;2023-07-20T11:23:22;98290.53;;;30.86;100.00
9307;BME280;4691;47.612;7.610;2023-07-20T11:25:47;98321.66;;;29.39;100.00
9307;BME280;4691;47.612;7.610;2023-07-20T11:28:12;98308.56;;;29.90;100.00
9307;BME280;4691;47.612;7.610;2023-07-20T11:30:38;98291.38;;;30.92;100.00
9307;BME280;4691;47.612;7.610;2023-07-20T11:33:13;98261.69;;;32.86;100.00
9307;BME280;4691;47.612;7.610;2023-07-20T11:35:44;98217.38;;;32.96;100.00
9307;BME280;4691;47.612;7.610;2023-07-20T11:38:13;98209.69;;;32.68;100.00
9307;BME280;4691;47.612;7.610;2023-07-20T11:40:45;98206.06;;;32.72;100.00
9307;BME280;4691;47.612;7.610;2023-07-20T11:43:12;98194.91;;;33.18;100.00
9307;BME280;4691;47.612;7.610;2023-07-20T11:45:38;98201.22;;;33.34;100.00
9307;BME280;4691;47.612;7.610;2023-07-20T11:48:04;98177.22;;;33.79;100.00
9307;BME280;4691;47.612;7.610;2023-07-20T11:50:29;98182.66;;;33.95;100.00
9307;BME280;4691;47.612;7.610;2023-07-20T11:52:55;98211.06;;;32.24;100.00
9307;BME280;4691;47.612;7.610;2023-07-20T11:55:21;98211.31;;;32.28;100.00
9307;BME280;4691;47.612;7.610;2023-07-20T11:58:06;98205.59;;;33.51;100.00
9307;BME280;4691;47.612;7.610;2023-07-20T12:00:36;98203.94;;;34.04;100.00
9307;BME280;4691;47.612;7.610;2023-07-20T12:03:05;98205.22;;;32.82;100.00
9307;BME280;4691;47.612;7.610;2023-07-20T12:05:31;98204.69;;;32.70;100.00
9307;BME280;4691;47.612;7.610;2023-07-20T12:07:57;98169.69;;;34.24;100.00
9307;BME280;4691;47.612;7.610;2023-07-20T12:10:27;98117.38;;;35.43;100.00
9307;BME280;4691;47.612;7.610;2023-07-20T12:12:54;98155.13;;;34.43;100.00
9307;BME280;4691;47.612;7.610;2023-07-20T12:15:26;98139.81;;;33.17;100.00
9307;BME280;4691;47.612;7.610;2023-07-20T12:17:57;98153.47;;;32.78;100.00
9307;BME280;4691;47.612;7.610;2023-07-20T12:20:29;98192.38;;;31.68;100.00
9307;BME280;4691;47.612;7.610;2023-07-20T12:23:00;98202.34;;;31.75;100.00
9307;BME280;4691;47.612;7.610;2023-07-20T12:25:42;98172.84;;;32.26;100.00
9307;BME280;4691;47.612;7.610;2023-07-20T12:28:17;98182.50;;;32.85;100.00
9307;BME280;4691;47.612;7.610;2023-07-20T12:30:43;98157.78;;;33.30;100.00
9307;BME280;4691;47.612;7.610;2023-07-20T12:33:09;98116.56;;;33.68;100.00
9307;BME280;4691;47.612;7.610;2023-07-20T12:35:35;98129.97;;;33.55;100.00
9307;BME280;4691;47.612;7.610;2023-07-20T12:38:00;98132.94;;;33.64;100.00
9307;BME280;4691;47.612;7.610;2023-07-20T12:40:25;98139.41;;;33.44;100.00
9307;BME280;4691;47.612;7.610;2023-07-20T12:42:51;98126.81;;;33.12;100.00
9307;BME280;4691;47.612;7.610;2023-07-20T12:45:16;98112.09;;;33.27;100.00
9307;BME280;4691;47.612;7.610;2023-07-20T12:47:42;98128.31;;;33.94;100.00
9307;BME280;4691;47.612;7.610;2023-07-20T12:50:10;98117.13;;;33.10;100.00
9307;BME280;4691;47.612;7.610;2023-07-20T12:52:39;98097.66;;;33.75;100.00
9307;BME280;4691;47.612;7.610;2023-07-20T12:55:06;98094.88;;;34.14;100.00
9307;BME280;4691;47.612;7.610;2023-07-20T12:57:36;98082.69;;;34.15;100.00
9307;BME280;4691;47.612;7.610;2023-07-20T13:00:03;98084.63;;;34.97;100.00
9307;BME280;4691;47.612;7.610;2023-07-20T13:02:30;98048.19;;;34.99;100.00
9307;BME280;4691;47.612;7.610;2023-07-20T13:04:56;98065.97;;;34.79;100.00
9307;BME280;4691;47.612;7.610;2023-07-20T13:07:30;98041.16;;;35.06;100.00
9307;BME280;4691;47.612;7.610;2023-07-20T13:09:56;98022.88;;;35.43;100.00
9307;BME280;4691;47.612;7.610;2023-07-20T13:12:21;98042.53;;;35.09;100.00
9307;BME280;4691;47.612;7.610;2023-07-20T13:14:46;98057.22;;;34.66;100.00
9307;BME280;4691;47.612;7.610;2023-07-20T13:17:12;98067.84;;;33.96;100.00
9307;BME280;4691;47.612;7.610;2023-07-20T13:19:37;98073.94;;;33.98;100.00
9307;BME280;4691;47.612;7.610;2023-07-20T13:22:02;98068.28;;;33.79;100.00
9307;BME280;4691;47.612;7.610;2023-07-20T13:24:28;98032.44;;;34.46;100.00
9307;BME280;4691;47.612;7.610;2023-07-20T13:26:53;98059.09;;;34.42;100.00